Aérodrome :
LOGIN :

S'inscrire | Disclaimer

   EN    FR    IT 

 










Légende :    VFR   VFR Marginal   IFR   IFR Intensif   IFR Très Intensif
Visi : 
Plafond : 
>= 8 km
>= 3000ft
5 à 8 km
1000 à 3000 ft
1500m à 5 km
500 à 1000 ft
800 à 1500m
200 à 500 ft
< 800m
< 200 ft
Symboles :   Orages  Brouillard  Fortes neiges  Fortes précipitations  Vent > 20 kt
SIGMETs :   Divers  Orages  Givrage  Turbulence  Onde Orograph.  Cendres Volcan.







- Altitude de l'aérodrome : 1300 ft
- Code IATA : LIG
- Voir les cartes d'approche


LFBL - Limoges

DERNIER METAR :
  • 170930Z AUTO 24006KT 200V290 9999 BKN022 OVC031 19/14 Q1021 NOSIG

METARs EXPIRÉS :
  • 170900Z AUTO 25006KT 200V290 9999 BKN018 OVC034 19/15 Q1021 NOSIG
  • 170830Z AUTO 25006KT 210V290 9999 SCT017 BKN027 OVC034 19/14 Q1021 NOSIG
  • 170800Z AUTO 24007KT 9999 FEW014 OVC033 19/14 Q1021 NOSIG
  • 170730Z AUTO 27006KT 220V310 9999 BKN012 OVC021 18/15 Q1021 BECMG SCT006 OVC020
  • 170700Z AUTO 25005KT 220V290 9999 BKN014 OVC020 18/15 Q1021 BECMG SCT006 OVC020

TAF AMD TAF LFBL
Valide du 17 à 06h jusqu'au 18 à 06h UTC


170551Z 1706/1806 VRB02KT 9999 SCT006 OVC020
TEMPO 1706/1708 BKN006
BECMG 1710/1712 SCT030
BECMG 1713/1715 27010KT CAVOK
BECMG 1719/1721 VRB02KT
ATIS : +33 5 55 48 40 37
Pas de NOTAMs connus pour ce terrain.



MET'MAP, la Météo Aéronautique d'un coup d'oeil ! - Copyright ORBIFLY Décembre 2007 - Disclaimer

ORBIFLY MET'MAP TEAM :

Programmation & Développement : Alexandra Zaïnal
Conception & Développement : Baudouin d'Aumeries
Co-Programmation & Développement : Marc-Olivier Méhu
Soutien technique & logistique : Manuel Goepfert

Contact : metmap@orbifly.com




SOURCES & CREDITS :

   NOAA